sensor_id;sensor_type;location;lat;lon;timestamp;P1;durP1;ratioP1;P2;durP2;ratioP2
13421;SDS011;6782;55.904;13.396;2022-08-19T00:00:12;19.75;;;18.15;;
13421;SDS011;6782;55.904;13.396;2022-08-19T00:03:02;21.17;;;19.40;;
13421;SDS011;6782;55.904;13.396;2022-08-19T00:05:50;22.13;;;20.17;;
13421;SDS011;6782;55.904;13.396;2022-08-19T00:08:45;24.10;;;22.13;;
13421;SDS011;6782;55.904;13.396;2022-08-19T00:11:33;23.20;;;21.30;;
13421;SDS011;6782;55.904;13.396;2022-08-19T00:14:24;22.20;;;20.17;;
13421;SDS011;6782;55.904;13.396;2022-08-19T00:17:14;21.70;;;19.95;;
13421;SDS011;6782;55.904;13.396;2022-08-19T00:20:16;23.35;;;21.35;;
13421;SDS011;6782;55.904;13.396;2022-08-19T00:23:05;25.27;;;23.00;;
13421;SDS011;6782;55.904;13.396;2022-08-19T00:25:54;25.27;;;23.05;;
13421;SDS011;6782;55.904;13.396;2022-08-19T00:28:43;24.70;;;22.60;;
13421;SDS011;6782;55.904;13.396;2022-08-19T00:31:34;30.73;;;28.00;;
13421;SDS011;6782;55.904;13.396;2022-08-19T00:34:25;31.10;;;28.70;;
13421;SDS011;6782;55.904;13.396;2022-08-19T00:37:14;30.90;;;28.30;;
13421;SDS011;6782;55.904;13.396;2022-08-19T00:40:03;32.30;;;29.75;;
13421;SDS011;6782;55.904;13.396;2022-08-19T00:42:54;34.63;;;31.75;;
13421;SDS011;6782;55.904;13.396;2022-08-19T00:45:43;30.20;;;27.80;;
13421;SDS011;6782;55.904;13.396;2022-08-19T00:48:35;32.63;;;29.92;;
13421;SDS011;6782;55.904;13.396;2022-08-19T00:51:44;30.02;;;27.40;;
13421;SDS011;6782;55.904;13.396;2022-08-19T00:54:51;34.20;;;31.13;;
13421;SDS011;6782;55.904;13.396;2022-08-19T00:57:41;34.97;;;31.63;;
13421;SDS011;6782;55.904;13.396;2022-08-19T01:00:46;36.92;;;34.10;;
13421;SDS011;6782;55.904;13.396;2022-08-19T01:03:39;37.70;;;34.40;;
13421;SDS011;6782;55.904;13.396;2022-08-19T01:06:37;35.90;;;32.83;;
13421;SDS011;6782;55.904;13.396;2022-08-19T01:09:33;34.17;;;31.08;;
13421;SDS011;6782;55.904;13.396;2022-08-19T01:12:21;32.45;;;29.70;;
13421;SDS011;6782;55.904;13.396;2022-08-19T01:15:17;33.35;;;30.50;;
13421;SDS011;6782;55.904;13.396;2022-08-19T01:18:14;34.08;;;30.92;;
13421;SDS011;6782;55.904;13.396;2022-08-19T01:24:50;30.70;;;28.08;;
13421;SDS011;6782;55.904;13.396;2022-08-19T01:27:38;29.60;;;27.20;;
13421;SDS011;6782;55.904;13.396;2022-08-19T01:30:27;28.73;;;26.42;;
13421;SDS011;6782;55.904;13.396;2022-08-19T01:33:19;29.10;;;26.80;;
13421;SDS011;6782;55.904;13.396;2022-08-19T01:36:21;28.70;;;25.75;;
13421;SDS011;6782;55.904;13.396;2022-08-19T01:39:27;28.38;;;25.85;;
13421;SDS011;6782;55.904;13.396;2022-08-19T01:42:29;26.85;;;24.55;;
13421;SDS011;6782;55.904;13.396;2022-08-19T01:45:17;28.50;;;26.10;;
13421;SDS011;6782;55.904;13.396;2022-08-19T01:48:14;28.77;;;25.98;;
13421;SDS011;6782;55.904;13.396;2022-08-19T01:51:05;30.10;;;27.55;;
13421;SDS011;6782;55.904;13.396;2022-08-19T01:54:02;30.20;;;27.70;;
13421;SDS011;6782;55.904;13.396;2022-08-19T01:57:08;27.58;;;25.27;;
13421;SDS011;6782;55.904;13.396;2022-08-19T02:00:07;26.52;;;24.42;;
13421;SDS011;6782;55.904;13.396;2022-08-19T02:03:11;26.52;;;24.40;;
13421;SDS011;6782;55.904;13.396;2022-08-19T02:06:01;27.63;;;25.17;;
13421;SDS011;6782;55.904;13.396;2022-08-19T02:08:56;30.88;;;28.20;;
13421;SDS011;6782;55.904;13.396;2022-08-19T02:11:44;27.88;;;25.30;;
13421;SDS011;6782;55.904;13.396;2022-08-19T02:14:35;26.27;;;24.15;;
13421;SDS011;6782;55.904;13.396;2022-08-19T02:17:28;27.77;;;25.17;;
13421;SDS011;6782;55.904;13.396;2022-08-19T02:20:17;29.17;;;26.67;;
13421;SDS011;6782;55.904;13.396;2022-08-19T02:23:08;26.92;;;24.50;;
13421;SDS011;6782;55.904;13.396;2022-08-19T02:26:00;32.35;;;29.48;;
13421;SDS011;6782;55.904;13.396;2022-08-19T02:28:55;32.40;;;29.52;;
13421;SDS011;6782;55.904;13.396;2022-08-19T02:31:52;35.53;;;31.98;;
13421;SDS011;6782;55.904;13.396;2022-08-19T02:34:49;111.03;;;41.90;;
13421;SDS011;6782;55.904;13.396;2022-08-19T02:37:36;44.63;;;40.03;;
13421;SDS011;6782;55.904;13.396;2022-08-19T02:40:56;48.30;;;43.53;;
13421;SDS011;6782;55.904;13.396;2022-08-19T02:43:56;49.03;;;44.40;;
13421;SDS011;6782;55.904;13.396;2022-08-19T02:46:49;48.90;;;44.15;;
13421;SDS011;6782;55.904;13.396;2022-08-19T02:49:38;50.10;;;45.65;;
13421;SDS011;6782;55.904;13.396;2022-08-19T02:52:28;45.63;;;41.38;;
13421;SDS011;6782;55.904;13.396;2022-08-19T02:55:20;44.10;;;40.08;;
13421;SDS011;6782;55.904;13.396;2022-08-19T02:58:12;48.15;;;43.75;;
13421;SDS011;6782;55.904;13.396;2022-08-19T03:00:59;49.30;;;44.53;;
13421;SDS011;6782;55.904;13.396;2022-08-19T03:03:47;53.58;;;48.33;;
13421;SDS011;6782;55.904;13.396;2022-08-19T03:06:45;52.25;;;46.97;;
13421;SDS011;6782;55.904;13.396;2022-08-19T03:09:42;48.65;;;43.75;;
13421;SDS011;6782;55.904;13.396;2022-08-19T03:12:37;48.72;;;44.03;;
13421;SDS011;6782;55.904;13.396;2022-08-19T03:15:25;46.53;;;42.17;;
13421;SDS011;6782;55.904;13.396;2022-08-19T03:18:14;45.58;;;41.42;;
13421;SDS011;6782;55.904;13.396;2022-08-19T03:21:14;63.40;;;43.42;;
13421;SDS011;6782;55.904;13.396;2022-08-19T03:24:15;57.38;;;42.72;;
13421;SDS011;6782;55.904;13.396;2022-08-19T03:27:11;52.63;;;43.50;;
13421;SDS011;6782;55.904;13.396;2022-08-19T03:29:59;90.20;;;42.88;;
13421;SDS011;6782;55.904;13.396;2022-08-19T03:32:55;66.97;;;43.38;;
13421;SDS011;6782;55.904;13.396;2022-08-19T03:35:59;49.28;;;43.53;;
13421;SDS011;6782;55.904;13.396;2022-08-19T03:39:01;291.25;;;53.50;;
13421;SDS011;6782;55.904;13.396;2022-08-19T03:41:50;218.15;;;50.75;;
13421;SDS011;6782;55.904;13.396;2022-08-19T03:44:47;132.40;;;46.53;;
13421;SDS011;6782;55.904;13.396;2022-08-19T03:47:40;269.25;;;61.35;;
13421;SDS011;6782;55.904;13.396;2022-08-19T03:50:37;290.88;;;64.65;;
13421;SDS011;6782;55.904;13.396;2022-08-19T03:53:30;155.60;;;55.35;;
13421;SDS011;6782;55.904;13.396;2022-08-19T03:56:20;411.83;;;84.53;;
13421;SDS011;6782;55.904;13.396;2022-08-19T03:59:17;240.52;;;66.43;;
13421;SDS011;6782;55.904;13.396;2022-08-19T04:02:10;70.78;;;45.30;;
13421;SDS011;6782;55.904;13.396;2022-08-19T04:05:01;143.20;;;52.15;;
13421;SDS011;6782;55.904;13.396;2022-08-19T04:07:48;115.35;;;48.22;;
13421;SDS011;6782;55.904;13.396;2022-08-19T04:10:57;190.30;;;57.75;;
13421;SDS011;6782;55.904;13.396;2022-08-19T04:13:45;126.63;;;55.20;;
13421;SDS011;6782;55.904;13.396;2022-08-19T04:16:34;105.78;;;54.05;;
13421;SDS011;6782;55.904;13.396;2022-08-19T04:19:33;143.18;;;53.45;;
13421;SDS011;6782;55.904;13.396;2022-08-19T04:22:25;208.25;;;56.65;;
13421;SDS011;6782;55.904;13.396;2022-08-19T04:25:16;133.88;;;51.67;;
13421;SDS011;6782;55.904;13.396;2022-08-19T04:28:11;205.85;;;61.95;;
13421;SDS011;6782;55.904;13.396;2022-08-19T04:30:59;270.52;;;61.72;;
13421;SDS011;6782;55.904;13.396;2022-08-19T04:34:02;291.90;;;67.65;;
13421;SDS011;6782;55.904;13.396;2022-08-19T04:36:58;124.25;;;47.97;;
13421;SDS011;6782;55.904;13.396;2022-08-19T04:39:47;127.65;;;47.15;;
13421;SDS011;6782;55.904;13.396;2022-08-19T04:42:52;149.00;;;51.95;;
13421;SDS011;6782;55.904;13.396;2022-08-19T04:45:42;138.90;;;49.75;;
13421;SDS011;6782;55.904;13.396;2022-08-19T04:48:32;58.72;;;41.72;;
13421;SDS011;6782;55.904;13.396;2022-08-19T04:51:22;130.32;;;48.30;;
13421;SDS011;6782;55.904;13.396;2022-08-19T04:54:21;168.95;;;52.25;;
13421;SDS011;6782;55.904;13.396;2022-08-19T04:57:17;189.27;;;52.75;;
13421;SDS011;6782;55.904;13.396;2022-08-19T05:00:04;173.75;;;53.10;;
13421;SDS011;6782;55.904;13.396;2022-08-19T05:02:53;105.30;;;45.28;;
13421;SDS011;6782;55.904;13.396;2022-08-19T05:05:40;112.60;;;46.67;;
13421;SDS011;6782;55.904;13.396;2022-08-19T05:08:34;123.57;;;50.42;;
13421;SDS011;6782;55.904;13.396;2022-08-19T05:11:32;105.03;;;48.25;;
13421;SDS011;6782;55.904;13.396;2022-08-19T05:14:24;82.70;;;44.55;;
13421;SDS011;6782;55.904;13.396;2022-08-19T05:17:11;53.53;;;41.83;;
13421;SDS011;6782;55.904;13.396;2022-08-19T05:19:59;113.60;;;49.42;;
13421;SDS011;6782;55.904;13.396;2022-08-19T05:23:19;53.13;;;41.42;;
13421;SDS011;6782;55.904;13.396;2022-08-19T05:26:13;60.85;;;42.10;;
13421;SDS011;6782;55.904;13.396;2022-08-19T05:29:03;51.28;;;43.17;;
13421;SDS011;6782;55.904;13.396;2022-08-19T05:31:57;53.85;;;42.47;;
13421;SDS011;6782;55.904;13.396;2022-08-19T05:34:58;61.80;;;44.08;;
13421;SDS011;6782;55.904;13.396;2022-08-19T05:37:50;77.72;;;42.33;;
13421;SDS011;6782;55.904;13.396;2022-08-19T05:40:39;50.60;;;41.53;;
13421;SDS011;6782;55.904;13.396;2022-08-19T05:43:27;63.97;;;40.72;;
13421;SDS011;6782;55.904;13.396;2022-08-19T05:46:17;49.90;;;41.63;;
13421;SDS011;6782;55.904;13.396;2022-08-19T05:49:06;48.10;;;39.40;;
13421;SDS011;6782;55.904;13.396;2022-08-19T05:51:54;47.80;;;39.42;;
13421;SDS011;6782;55.904;13.396;2022-08-19T05:54:42;43.45;;;38.83;;
13421;SDS011;6782;55.904;13.396;2022-08-19T05:57:33;45.15;;;39.97;;
13421;SDS011;6782;55.904;13.396;2022-08-19T06:00:20;44.55;;;39.67;;
13421;SDS011;6782;55.904;13.396;2022-08-19T06:03:10;43.50;;;39.20;;
13421;SDS011;6782;55.904;13.396;2022-08-19T06:05:57;43.58;;;39.55;;
13421;SDS011;6782;55.904;13.396;2022-08-19T06:08:45;42.75;;;38.97;;
13421;SDS011;6782;55.904;13.396;2022-08-19T06:11:36;40.75;;;37.33;;
13421;SDS011;6782;55.904;13.396;2022-08-19T06:14:26;40.80;;;37.30;;
13421;SDS011;6782;55.904;13.396;2022-08-19T06:17:15;39.40;;;36.22;;
13421;SDS011;6782;55.904;13.396;2022-08-19T06:20:05;39.30;;;36.10;;
13421;SDS011;6782;55.904;13.396;2022-08-19T06:22:54;37.72;;;34.72;;
13421;SDS011;6782;55.904;13.396;2022-08-19T06:25:42;38.58;;;35.58;;
13421;SDS011;6782;55.904;13.396;2022-08-19T06:28:29;39.13;;;36.13;;
13421;SDS011;6782;55.904;13.396;2022-08-19T06:31:19;38.58;;;35.50;;
13421;SDS011;6782;55.904;13.396;2022-08-19T06:34:08;37.35;;;34.45;;
13421;SDS011;6782;55.904;13.396;2022-08-19T06:36:57;37.15;;;34.40;;
13421;SDS011;6782;55.904;13.396;2022-08-19T06:39:47;37.63;;;34.72;;
13421;SDS011;6782;55.904;13.396;2022-08-19T06:42:34;37.65;;;34.78;;
13421;SDS011;6782;55.904;13.396;2022-08-19T06:45:23;37.30;;;34.38;;
13421;SDS011;6782;55.904;13.396;2022-08-19T06:48:11;37.72;;;34.83;;
13421;SDS011;6782;55.904;13.396;2022-08-19T06:50:58;38.70;;;35.60;;
13421;SDS011;6782;55.904;13.396;2022-08-19T06:53:47;40.78;;;37.58;;
13421;SDS011;6782;55.904;13.396;2022-08-19T06:56:36;39.30;;;36.30;;
13421;SDS011;6782;55.904;13.396;2022-08-19T06:59:24;39.65;;;36.45;;
13421;SDS011;6782;55.904;13.396;2022-08-19T07:02:12;38.55;;;35.65;;
13421;SDS011;6782;55.904;13.396;2022-08-19T07:05:00;36.70;;;33.97;;
13421;SDS011;6782;55.904;13.396;2022-08-19T07:07:48;37.15;;;34.25;;
13421;SDS011;6782;55.904;13.396;2022-08-19T07:10:38;34.90;;;32.20;;
13421;SDS011;6782;55.904;13.396;2022-08-19T07:13:29;35.38;;;32.78;;
13421;SDS011;6782;55.904;13.396;2022-08-19T07:16:18;31.40;;;28.85;;
13421;SDS011;6782;55.904;13.396;2022-08-19T07:20:04;26.63;;;24.63;;
13421;SDS011;6782;55.904;13.396;2022-08-19T07:22:53;24.35;;;22.65;;
13421;SDS011;6782;55.904;13.396;2022-08-19T07:25:44;21.13;;;19.42;;
13421;SDS011;6782;55.904;13.396;2022-08-19T07:28:31;21.25;;;19.80;;
13421;SDS011;6782;55.904;13.396;2022-08-19T07:31:20;20.90;;;19.40;;
13421;SDS011;6782;55.904;13.396;2022-08-19T07:34:09;21.25;;;19.55;;
13421;SDS011;6782;55.904;13.396;2022-08-19T07:36:57;20.23;;;18.73;;
13421;SDS011;6782;55.904;13.396;2022-08-19T07:39:44;20.30;;;18.90;;
13421;SDS011;6782;55.904;13.396;2022-08-19T07:42:43;21.50;;;20.00;;
13421;SDS011;6782;55.904;13.396;2022-08-19T07:45:40;21.38;;;19.77;;
13421;SDS011;6782;55.904;13.396;2022-08-19T07:48:27;21.33;;;19.85;;
13421;SDS011;6782;55.904;13.396;2022-08-19T07:51:16;21.05;;;19.55;;
13421;SDS011;6782;55.904;13.396;2022-08-19T07:54:05;21.45;;;19.85;;
13421;SDS011;6782;55.904;13.396;2022-08-19T07:56:54;21.35;;;19.75;;
13421;SDS011;6782;55.904;13.396;2022-08-19T07:59:43;22.00;;;20.17;;
13421;SDS011;6782;55.904;13.396;2022-08-19T08:02:30;23.60;;;21.70;;
13421;SDS011;6782;55.904;13.396;2022-08-19T08:05:17;23.70;;;21.98;;
13421;SDS011;6782;55.904;13.396;2022-08-19T08:08:22;25.27;;;23.58;;
13421;SDS011;6782;55.904;13.396;2022-08-19T08:11:24;26.92;;;25.13;;
13421;SDS011;6782;55.904;13.396;2022-08-19T08:14:12;29.90;;;27.70;;
13421;SDS011;6782;55.904;13.396;2022-08-19T08:17:01;33.00;;;30.50;;
13421;SDS011;6782;55.904;13.396;2022-08-19T08:19:50;33.47;;;31.00;;
13421;SDS011;6782;55.904;13.396;2022-08-19T08:22:42;33.35;;;30.52;;
13421;SDS011;6782;55.904;13.396;2022-08-19T08:25:43;29.67;;;27.52;;
13421;SDS011;6782;55.904;13.396;2022-08-19T08:28:31;32.72;;;30.15;;
13421;SDS011;6782;55.904;13.396;2022-08-19T08:31:19;32.58;;;29.95;;
13421;SDS011;6782;55.904;13.396;2022-08-19T08:34:09;32.80;;;30.30;;
13421;SDS011;6782;55.904;13.396;2022-08-19T08:36:59;31.98;;;29.67;;
13421;SDS011;6782;55.904;13.396;2022-08-19T08:40:43;28.17;;;26.05;;
13421;SDS011;6782;55.904;13.396;2022-08-19T08:43:53;27.02;;;24.92;;
13421;SDS011;6782;55.904;13.396;2022-08-19T08:46:43;25.48;;;23.55;;
13421;SDS011;6782;55.904;13.396;2022-08-19T08:49:36;25.10;;;23.27;;
13421;SDS011;6782;55.904;13.396;2022-08-19T08:52:31;19.20;;;17.67;;
13421;SDS011;6782;55.904;13.396;2022-08-19T08:55:23;19.48;;;18.05;;
13421;SDS011;6782;55.904;13.396;2022-08-19T08:58:17;17.90;;;16.60;;
13421;SDS011;6782;55.904;13.396;2022-08-19T09:01:08;17.90;;;16.63;;
13421;SDS011;6782;55.904;13.396;2022-08-19T09:03:57;17.60;;;16.30;;
13421;SDS011;6782;55.904;13.396;2022-08-19T09:06:48;17.13;;;15.82;;
13421;SDS011;6782;55.904;13.396;2022-08-19T09:09:41;15.48;;;14.43;;
13421;SDS011;6782;55.904;13.396;2022-08-19T09:12:33;17.30;;;16.00;;
13421;SDS011;6782;55.904;13.396;2022-08-19T09:15:28;14.98;;;13.63;;
13421;SDS011;6782;55.904;13.396;2022-08-19T09:18:25;11.75;;;11.02;;
13421;SDS011;6782;55.904;13.396;2022-08-19T09:21:31;11.90;;;11.00;;
13421;SDS011;6782;55.904;13.396;2022-08-19T09:24:20;11.88;;;11.02;;
13421;SDS011;6782;55.904;13.396;2022-08-19T09:27:07;11.77;;;10.77;;
13421;SDS011;6782;55.904;13.396;2022-08-19T09:30:25;12.15;;;11.23;;
13421;SDS011;6782;55.904;13.396;2022-08-19T09:33:15;11.00;;;10.20;;
13421;SDS011;6782;55.904;13.396;2022-08-19T09:36:03;10.52;;;9.73;;
13421;SDS011;6782;55.904;13.396;2022-08-19T09:38:53;10.43;;;9.57;;
13421;SDS011;6782;55.904;13.396;2022-08-19T09:41:54;9.98;;;9.25;;
13421;SDS011;6782;55.904;13.396;2022-08-19T09:45:40;10.18;;;9.38;;
13421;SDS011;6782;55.904;13.396;2022-08-19T09:48:53;10.13;;;9.32;;
13421;SDS011;6782;55.904;13.396;2022-08-19T09:52:39;9.35;;;8.68;;
13421;SDS011;6782;55.904;13.396;2022-08-19T09:56:26;9.13;;;8.48;;
13421;SDS011;6782;55.904;13.396;2022-08-19T09:59:29;10.00;;;9.13;;
13421;SDS011;6782;55.904;13.396;2022-08-19T10:02:18;9.73;;;8.95;;
13421;SDS011;6782;55.904;13.396;2022-08-19T10:05:47;10.10;;;9.30;;
13421;SDS011;6782;55.904;13.396;2022-08-19T10:09:32;9.60;;;8.82;;
13421;SDS011;6782;55.904;13.396;2022-08-19T10:12:56;9.93;;;9.13;;
13421;SDS011;6782;55.904;13.396;2022-08-19T10:16:45;9.30;;;8.60;;
13421;SDS011;6782;55.904;13.396;2022-08-19T10:20:31;10.25;;;9.40;;
13421;SDS011;6782;55.904;13.396;2022-08-19T10:24:18;9.88;;;9.07;;
13421;SDS011;6782;55.904;13.396;2022-08-19T10:28:05;10.20;;;9.20;;
13421;SDS011;6782;55.904;13.396;2022-08-19T10:31:54;10.60;;;9.70;;
13421;SDS011;6782;55.904;13.396;2022-08-19T10:35:40;10.45;;;9.55;;
13421;SDS011;6782;55.904;13.396;2022-08-19T10:39:31;10.32;;;9.63;;
13421;SDS011;6782;55.904;13.396;2022-08-19T10:42:34;11.45;;;10.48;;
13421;SDS011;6782;55.904;13.396;2022-08-19T10:46:24;11.57;;;10.77;;
13421;SDS011;6782;55.904;13.396;2022-08-19T10:49:45;10.50;;;9.75;;
13421;SDS011;6782;55.904;13.396;2022-08-19T10:53:50;11.48;;;10.50;;
13421;SDS011;6782;55.904;13.396;2022-08-19T10:57:54;10.88;;;10.00;;
13421;SDS011;6782;55.904;13.396;2022-08-19T11:01:43;10.85;;;10.05;;
13421;SDS011;6782;55.904;13.396;2022-08-19T11:05:31;10.30;;;9.48;;
13421;SDS011;6782;55.904;13.396;2022-08-19T11:09:18;11.40;;;10.45;;
13421;SDS011;6782;55.904;13.396;2022-08-19T11:13:04;11.82;;;10.77;;
13421;SDS011;6782;55.904;13.396;2022-08-19T11:15:56;11.10;;;10.20;;
13421;SDS011;6782;55.904;13.396;2022-08-19T11:19:44;11.02;;;10.18;;
13421;SDS011;6782;55.904;13.396;2022-08-19T11:23:33;11.18;;;10.38;;
13421;SDS011;6782;55.904;13.396;2022-08-19T11:26:24;11.45;;;10.65;;
13421;SDS011;6782;55.904;13.396;2022-08-19T11:30:14;11.38;;;10.50;;
13421;SDS011;6782;55.904;13.396;2022-08-19T11:34:00;10.80;;;9.95;;
13421;SDS011;6782;55.904;13.396;2022-08-19T11:37:48;10.32;;;9.52;;
13421;SDS011;6782;55.904;13.396;2022-08-19T11:41:33;9.98;;;9.27;;
13421;SDS011;6782;55.904;13.396;2022-08-19T11:44:34;10.40;;;9.70;;
13421;SDS011;6782;55.904;13.396;2022-08-19T11:48:20;10.88;;;9.98;;
13421;SDS011;6782;55.904;13.396;2022-08-19T11:52:08;10.93;;;10.15;;
13421;SDS011;6782;55.904;13.396;2022-08-19T11:55:55;10.48;;;9.77;;
13421;SDS011;6782;55.904;13.396;2022-08-19T11:59:41;10.60;;;9.80;;
13421;SDS011;6782;55.904;13.396;2022-08-19T12:03:26;11.43;;;10.52;;
13421;SDS011;6782;55.904;13.396;2022-08-19T12:07:14;10.68;;;9.82;;
13421;SDS011;6782;55.904;13.396;2022-08-19T12:10:12;9.75;;;9.05;;
13421;SDS011;6782;55.904;13.396;2022-08-19T12:13:54;9.80;;;9.10;;
13421;SDS011;6782;55.904;13.396;2022-08-19T12:17:42;9.88;;;9.07;;
13421;SDS011;6782;55.904;13.396;2022-08-19T12:21:24;10.32;;;9.45;;
13421;SDS011;6782;55.904;13.396;2022-08-19T12:25:11;10.25;;;9.32;;
13421;SDS011;6782;55.904;13.396;2022-08-19T12:28:57;10.43;;;9.63;;
13421;SDS011;6782;55.904;13.396;2022-08-19T12:32:42;10.70;;;9.90;;
13421;SDS011;6782;55.904;13.396;2022-08-19T12:35:30;9.73;;;8.85;;
13421;SDS011;6782;55.904;13.396;2022-08-19T12:38:29;10.45;;;9.45;;
13421;SDS011;6782;55.904;13.396;2022-08-19T12:42:11;11.57;;;10.77;;
13421;SDS011;6782;55.904;13.396;2022-08-19T12:45:57;16.70;;;15.07;;
13421;SDS011;6782;55.904;13.396;2022-08-19T12:49:43;12.52;;;11.63;;
13421;SDS011;6782;55.904;13.396;2022-08-19T12:53:35;11.60;;;10.80;;
13421;SDS011;6782;55.904;13.396;2022-08-19T12:57:22;12.07;;;11.10;;
13421;SDS011;6782;55.904;13.396;2022-08-19T13:01:09;11.80;;;11.00;;
13421;SDS011;6782;55.904;13.396;2022-08-19T13:04:55;11.90;;;11.00;;
13421;SDS011;6782;55.904;13.396;2022-08-19T13:08:43;13.60;;;12.60;;
13421;SDS011;6782;55.904;13.396;2022-08-19T13:12:29;12.70;;;11.65;;
13421;SDS011;6782;55.904;13.396;2022-08-19T13:16:13;12.70;;;11.70;;
13421;SDS011;6782;55.904;13.396;2022-08-19T13:19:59;13.32;;;12.32;;
13421;SDS011;6782;55.904;13.396;2022-08-19T13:23:51;13.80;;;12.60;;
13421;SDS011;6782;55.904;13.396;2022-08-19T13:26:39;14.10;;;13.10;;
13421;SDS011;6782;55.904;13.396;2022-08-19T13:29:26;13.75;;;12.73;;
13421;SDS011;6782;55.904;13.396;2022-08-19T13:32:33;13.55;;;12.55;;
13421;SDS011;6782;55.904;13.396;2022-08-19T13:36:00;13.70;;;12.70;;
13421;SDS011;6782;55.904;13.396;2022-08-19T13:39:15;14.15;;;13.05;;
13421;SDS011;6782;55.904;13.396;2022-08-19T13:42:45;13.95;;;12.95;;
13421;SDS011;6782;55.904;13.396;2022-08-19T13:46:31;14.02;;;12.95;;
13421;SDS011;6782;55.904;13.396;2022-08-19T13:49:43;14.73;;;13.45;;
13421;SDS011;6782;55.904;13.396;2022-08-19T13:53:29;15.15;;;14.15;;
13421;SDS011;6782;55.904;13.396;2022-08-19T13:57:17;16.00;;;14.80;;
13421;SDS011;6782;55.904;13.396;2022-08-19T14:00:37;15.50;;;14.30;;
13421;SDS011;6782;55.904;13.396;2022-08-19T14:04:24;15.45;;;14.38;;
13421;SDS011;6782;55.904;13.396;2022-08-19T14:08:11;15.40;;;14.20;;
13421;SDS011;6782;55.904;13.396;2022-08-19T14:15:49;15.02;;;13.93;;
13421;SDS011;6782;55.904;13.396;2022-08-19T14:19:44;15.25;;;14.15;;
13421;SDS011;6782;55.904;13.396;2022-08-19T14:23:32;15.05;;;13.90;;
13421;SDS011;6782;55.904;13.396;2022-08-19T14:27:19;14.13;;;13.02;;
13421;SDS011;6782;55.904;13.396;2022-08-19T14:31:09;14.48;;;13.32;;
13421;SDS011;6782;55.904;13.396;2022-08-19T14:35:00;14.85;;;13.75;;
13421;SDS011;6782;55.904;13.396;2022-08-19T14:39:25;14.07;;;13.07;;
13421;SDS011;6782;55.904;13.396;2022-08-19T14:43:16;13.38;;;12.27;;
13421;SDS011;6782;55.904;13.396;2022-08-19T14:47:04;13.32;;;12.43;;
13421;SDS011;6782;55.904;13.396;2022-08-19T14:50:56;15.10;;;13.90;;
13421;SDS011;6782;55.904;13.396;2022-08-19T14:54:55;12.85;;;11.85;;
13421;SDS011;6782;55.904;13.396;2022-08-19T14:57:44;13.75;;;12.85;;
13421;SDS011;6782;55.904;13.396;2022-08-19T15:01:51;14.07;;;12.95;;
13421;SDS011;6782;55.904;13.396;2022-08-19T15:05:40;14.50;;;13.38;;
13421;SDS011;6782;55.904;13.396;2022-08-19T15:09:40;14.05;;;13.05;;
13421;SDS011;6782;55.904;13.396;2022-08-19T15:13:27;14.48;;;13.27;;
13421;SDS011;6782;55.904;13.396;2022-08-19T15:16:31;15.60;;;14.50;;
13421;SDS011;6782;55.904;13.396;2022-08-19T15:19:35;15.07;;;13.77;;
13421;SDS011;6782;55.904;13.396;2022-08-19T15:23:12;14.88;;;13.57;;
13421;SDS011;6782;55.904;13.396;2022-08-19T15:26:23;15.43;;;14.13;;
13421;SDS011;6782;55.904;13.396;2022-08-19T15:30:25;16.05;;;14.85;;
13421;SDS011;6782;55.904;13.396;2022-08-19T15:38:21;15.20;;;14.10;;
13421;SDS011;6782;55.904;13.396;2022-08-19T15:41:15;15.40;;;14.23;;
13421;SDS011;6782;55.904;13.396;2022-08-19T15:44:17;15.57;;;14.25;;
13421;SDS011;6782;55.904;13.396;2022-08-19T15:48:02;14.80;;;13.70;;
13421;SDS011;6782;55.904;13.396;2022-08-19T15:51:22;15.73;;;14.45;;
13421;SDS011;6782;55.904;13.396;2022-08-19T15:54:12;16.20;;;15.00;;
13421;SDS011;6782;55.904;13.396;2022-08-19T15:58:00;16.05;;;14.95;;
13421;SDS011;6782;55.904;13.396;2022-08-19T16:01:43;17.67;;;16.25;;
13421;SDS011;6782;55.904;13.396;2022-08-19T16:05:12;18.42;;;16.95;;
13421;SDS011;6782;55.904;13.396;2022-08-19T16:09:20;16.55;;;15.35;;
13421;SDS011;6782;55.904;13.396;2022-08-19T16:13:13;17.67;;;16.27;;
13421;SDS011;6782;55.904;13.396;2022-08-19T16:17:00;22.35;;;20.70;;
13421;SDS011;6782;55.904;13.396;2022-08-19T16:20:41;20.77;;;19.17;;
13421;SDS011;6782;55.904;13.396;2022-08-19T16:23:31;21.17;;;19.58;;
13421;SDS011;6782;55.904;13.396;2022-08-19T16:26:29;20.15;;;18.58;;
13421;SDS011;6782;55.904;13.396;2022-08-19T16:29:33;22.60;;;20.67;;
13421;SDS011;6782;55.904;13.396;2022-08-19T16:32:36;22.60;;;20.60;;
13421;SDS011;6782;55.904;13.396;2022-08-19T16:36:25;27.35;;;24.98;;
13421;SDS011;6782;55.904;13.396;2022-08-19T16:39:41;32.10;;;29.20;;
13421;SDS011;6782;55.904;13.396;2022-08-19T16:46:02;34.38;;;31.42;;
13421;SDS011;6782;55.904;13.396;2022-08-19T16:48:50;34.40;;;31.40;;
13421;SDS011;6782;55.904;13.396;2022-08-19T16:51:39;34.45;;;31.15;;
13421;SDS011;6782;55.904;13.396;2022-08-19T16:54:29;33.53;;;30.52;;
13421;SDS011;6782;55.904;13.396;2022-08-19T16:57:17;34.72;;;31.63;;
13421;SDS011;6782;55.904;13.396;2022-08-19T17:00:22;33.17;;;30.33;;
13421;SDS011;6782;55.904;13.396;2022-08-19T17:03:11;35.72;;;32.35;;
13421;SDS011;6782;55.904;13.396;2022-08-19T17:05:59;35.75;;;32.40;;
13421;SDS011;6782;55.904;13.396;2022-08-19T17:09:36;35.35;;;32.05;;
13421;SDS011;6782;55.904;13.396;2022-08-19T17:12:33;36.17;;;33.00;;
13421;SDS011;6782;55.904;13.396;2022-08-19T17:15:21;36.53;;;33.33;;
13421;SDS011;6782;55.904;13.396;2022-08-19T17:21:25;38.03;;;34.40;;
13421;SDS011;6782;55.904;13.396;2022-08-19T17:24:17;35.75;;;32.40;;
13421;SDS011;6782;55.904;13.396;2022-08-19T17:27:08;35.33;;;32.13;;
13421;SDS011;6782;55.904;13.396;2022-08-19T17:30:02;34.45;;;31.42;;
13421;SDS011;6782;55.904;13.396;2022-08-19T17:33:07;33.90;;;31.05;;
13421;SDS011;6782;55.904;13.396;2022-08-19T17:39:19;33.55;;;30.65;;
13421;SDS011;6782;55.904;13.396;2022-08-19T17:42:19;32.53;;;29.83;;
13421;SDS011;6782;55.904;13.396;2022-08-19T17:45:11;31.58;;;28.90;;
13421;SDS011;6782;55.904;13.396;2022-08-19T17:48:15;30.92;;;28.30;;
13421;SDS011;6782;55.904;13.396;2022-08-19T17:51:12;32.63;;;29.90;;
13421;SDS011;6782;55.904;13.396;2022-08-19T17:54:06;31.23;;;28.83;;
13421;SDS011;6782;55.904;13.396;2022-08-19T17:56:59;32.88;;;30.08;;
13421;SDS011;6782;55.904;13.396;2022-08-19T17:59:48;34.28;;;31.33;;
13421;SDS011;6782;55.904;13.396;2022-08-19T18:02:43;32.55;;;29.67;;
13421;SDS011;6782;55.904;13.396;2022-08-19T18:05:40;32.35;;;29.65;;
13421;SDS011;6782;55.904;13.396;2022-08-19T18:08:36;35.35;;;32.47;;
13421;SDS011;6782;55.904;13.396;2022-08-19T18:11:34;33.58;;;30.77;;
13421;SDS011;6782;55.904;13.396;2022-08-19T18:14:48;33.55;;;30.65;;
13421;SDS011;6782;55.904;13.396;2022-08-19T18:17:44;34.15;;;31.13;;
13421;SDS011;6782;55.904;13.396;2022-08-19T18:20:38;34.50;;;31.52;;
13421;SDS011;6782;55.904;13.396;2022-08-19T18:23:32;34.50;;;31.33;;
13421;SDS011;6782;55.904;13.396;2022-08-19T18:26:24;33.28;;;30.45;;
13421;SDS011;6782;55.904;13.396;2022-08-19T18:29:26;34.25;;;31.10;;
13421;SDS011;6782;55.904;13.396;2022-08-19T18:32:18;34.97;;;31.95;;
13421;SDS011;6782;55.904;13.396;2022-08-19T18:35:20;35.72;;;32.20;;